createdAt,value
2023-04-22T00:02:17.118Z,40.38
2023-04-22T00:07:14.041Z,25.33
2023-04-22T00:09:41.148Z,35.45
2023-04-22T00:12:08.412Z,28.15
2023-04-22T00:14:35.623Z,28.55
2023-04-22T00:17:02.353Z,25.33
2023-04-22T00:19:29.448Z,32.90
2023-04-22T00:21:56.193Z,26.77
2023-04-22T00:24:22.849Z,26.65
2023-04-22T00:26:49.569Z,34.10
2023-04-22T00:29:16.248Z,31.30
2023-04-22T00:31:42.998Z,38.17
2023-04-22T00:34:09.713Z,38.78
2023-04-22T00:36:36.384Z,33.50
2023-04-22T00:39:03.138Z,38.40
2023-04-22T00:41:31.268Z,29.05
2023-04-22T00:43:58.673Z,32.80
2023-04-22T00:46:25.731Z,28.50
2023-04-22T00:48:52.966Z,34.30
2023-04-22T00:51:19.666Z,35.22
2023-04-22T00:53:46.319Z,33.50
2023-04-22T00:56:13.312Z,42.92
2023-04-22T00:58:40.517Z,37.55
2023-04-22T01:01:07.208Z,29.10
2023-04-22T01:03:34.818Z,33.05
2023-04-22T01:06:01.654Z,29.50
2023-04-22T01:08:32.074Z,32.58
2023-04-22T01:10:58.771Z,39.28
2023-04-22T01:13:25.624Z,34.03
2023-04-22T01:15:53.500Z,35.38
2023-04-22T01:18:20.304Z,35.80
2023-04-22T01:20:46.920Z,35.20
2023-04-22T01:23:20.501Z,37.22
2023-04-22T01:25:47.813Z,35.80
2023-04-22T01:28:16.038Z,38.40
2023-04-22T01:30:44.070Z,33.90
2023-04-22T01:33:11.100Z,39.65
2023-04-22T01:35:38.396Z,38.88
2023-04-22T01:38:07.080Z,34.50
2023-04-22T01:40:34.097Z,37.75
2023-04-22T01:43:01.557Z,32.92
2023-04-22T01:45:28.726Z,37.15
2023-04-22T01:47:55.832Z,34.13
2023-04-22T01:50:23.276Z,32.05
2023-04-22T01:52:50.079Z,41.53
2023-04-22T01:55:17.029Z,36.08
2023-04-22T01:57:43.822Z,37.33
2023-04-22T02:00:11.177Z,41.90
2023-04-22T02:02:38.088Z,33.28
2023-04-22T02:05:06.784Z,32.15
2023-04-22T02:07:33.454Z,33.20
2023-04-22T02:10:01.586Z,32.30
2023-04-22T02:12:28.276Z,32.97
2023-04-22T02:14:54.914Z,38.45
2023-04-22T02:17:22.398Z,46.42
2023-04-22T02:19:49.154Z,38.72
2023-04-22T02:22:16.727Z,44.00
2023-04-22T02:24:43.430Z,44.08
2023-04-22T02:27:10.144Z,41.10
2023-04-22T02:29:37.028Z,50.25
2023-04-22T02:32:03.886Z,46.55
2023-04-22T02:34:30.579Z,46.15
2023-04-22T02:36:57.253Z,35.55
2023-04-22T02:39:23.900Z,42.10
2023-04-22T02:41:50.572Z,38.15
2023-04-22T02:44:17.199Z,47.15
2023-04-22T02:46:43.908Z,57.08
2023-04-22T02:49:10.579Z,63.33
2023-04-22T02:51:39.350Z,64.60
2023-04-22T02:54:06.005Z,64.07
2023-04-22T02:56:32.705Z,64.75
2023-04-22T02:58:59.362Z,62.33
2023-04-22T03:01:26.189Z,56.90
2023-04-22T03:03:53.388Z,58.85
2023-04-22T03:06:20.844Z,65.40
2023-04-22T03:08:47.575Z,55.45
2023-04-22T03:11:14.256Z,59.92
2023-04-22T03:13:40.968Z,51.30
2023-04-22T03:16:07.736Z,47.90
2023-04-22T03:18:34.406Z,53.80
2023-04-22T03:21:01.086Z,58.22
2023-04-22T03:23:27.753Z,59.17
2023-04-22T03:25:54.405Z,60.30
2023-04-22T03:28:21.202Z,52.33
2023-04-22T03:30:48.598Z,56.55
2023-04-22T03:33:15.793Z,59.45
2023-04-22T03:35:42.514Z,59.22
2023-04-22T03:38:09.199Z,63.92
2023-04-22T03:40:35.942Z,58.00
2023-04-22T03:43:03.781Z,50.85
2023-04-22T03:45:30.533Z,52.88
2023-04-22T03:47:57.355Z,46.05
2023-04-22T03:50:24.117Z,48.38
2023-04-22T03:52:51.074Z,48.97
2023-04-22T03:55:17.759Z,45.47
2023-04-22T03:57:44.463Z,44.40
2023-04-22T04:00:11.596Z,54.13
2023-04-22T04:02:38.392Z,48.75
2023-04-22T04:05:05.575Z,43.83
2023-04-22T04:07:32.413Z,43.25
2023-04-22T04:09:59.141Z,49.88
2023-04-22T04:12:25.797Z,41.50
2023-04-22T04:14:52.439Z,47.58
2023-04-22T04:17:19.162Z,39.00
2023-04-22T04:19:45.852Z,60.08
2023-04-22T04:22:12.564Z,38.95
2023-04-22T04:24:42.407Z,65.82
2023-04-22T04:27:09.144Z,68.65
2023-04-22T04:29:35.982Z,45.28
2023-04-22T04:32:03.385Z,32.95
2023-04-22T04:34:30.065Z,36.90
2023-04-22T04:36:57.136Z,38.53
2023-04-22T04:39:24.058Z,32.22
2023-04-22T04:41:55.147Z,31.30
2023-04-22T04:44:22.129Z,35.92
2023-04-22T04:46:48.911Z,28.55
2023-04-22T04:49:16.981Z,37.72
2023-04-22T04:51:43.720Z,27.23
2023-04-22T04:54:10.552Z,36.55
2023-04-22T04:56:37.238Z,30.83
2023-04-22T04:59:03.883Z,26.77
2023-04-22T05:01:30.648Z,36.28
2023-04-22T05:03:57.513Z,36.85
2023-04-22T05:06:24.385Z,40.38
2023-04-22T05:08:51.085Z,36.13
2023-04-22T05:11:17.745Z,38.92
2023-04-22T05:13:44.601Z,29.15
2023-04-22T05:16:11.299Z,32.83
2023-04-22T05:18:37.991Z,26.25
2023-04-22T05:21:04.942Z,34.38
2023-04-22T05:23:31.644Z,29.92
2023-04-22T05:25:58.570Z,32.38
2023-04-22T05:28:25.458Z,36.70
2023-04-22T05:30:52.109Z,44.70
2023-04-22T05:33:18.842Z,30.67
2023-04-22T05:35:45.535Z,33.13
2023-04-22T05:38:12.280Z,33.40
2023-04-22T05:40:40.489Z,24.25
2023-04-22T05:43:07.166Z,30.88
2023-04-22T05:45:34.040Z,33.38
2023-04-22T05:48:00.842Z,30.83
2023-04-22T05:50:28.058Z,26.13
2023-04-22T05:52:54.728Z,22.77
2023-04-22T05:55:21.388Z,31.98
2023-04-22T05:57:48.160Z,37.15
2023-04-22T06:00:15.519Z,24.42
2023-04-22T06:02:42.365Z,29.23
2023-04-22T06:05:09.910Z,18.65
2023-04-22T06:07:36.672Z,21.73
2023-04-22T06:10:05.338Z,26.67
2023-04-22T06:14:59.742Z,16.73
2023-04-22T06:17:26.502Z,15.45
2023-04-22T06:19:53.190Z,19.30
2023-04-22T06:22:21.752Z,21.42
2023-04-22T06:24:48.455Z,21.25
2023-04-22T06:27:15.166Z,20.23
2023-04-22T06:29:41.971Z,22.63
2023-04-22T06:32:08.628Z,25.50
2023-04-22T06:34:35.557Z,21.55
2023-04-22T06:37:02.249Z,13.70
2023-04-22T06:39:28.896Z,21.13
2023-04-22T06:41:55.763Z,21.42
2023-04-22T06:44:22.638Z,22.65
2023-04-22T06:46:49.345Z,20.08
2023-04-22T06:49:16.020Z,18.30
2023-04-22T06:51:42.648Z,15.48
2023-04-22T06:54:09.459Z,15.30
2023-04-22T06:56:36.301Z,21.33
2023-04-22T06:59:03.040Z,14.63
2023-04-22T07:01:29.803Z,12.75
2023-04-22T07:03:56.620Z,16.30
2023-04-22T07:06:23.452Z,27.25
2023-04-22T07:08:50.207Z,14.30
2023-04-22T07:11:16.940Z,13.85
2023-04-22T07:13:43.626Z,16.70
2023-04-22T07:16:10.568Z,12.48
2023-04-22T07:18:37.327Z,18.85
2023-04-22T07:21:04.141Z,13.98
2023-04-22T07:23:30.862Z,22.70
2023-04-22T07:25:57.714Z,17.15
2023-04-22T07:28:24.345Z,18.33
2023-04-22T07:30:51.025Z,21.73
2023-04-22T07:33:17.671Z,21.90
2023-04-22T07:35:45.424Z,22.65
2023-04-22T07:38:14.081Z,26.65
2023-04-22T07:40:41.305Z,17.23
2023-04-22T07:43:08.026Z,13.95
2023-04-22T07:45:34.949Z,13.68
2023-04-22T07:48:01.900Z,17.13
2023-04-22T07:50:28.596Z,17.27
2023-04-22T07:52:55.460Z,21.63
2023-04-22T07:55:22.225Z,22.38
2023-04-22T07:57:48.935Z,17.33
2023-04-22T08:00:16.073Z,20.98
2023-04-22T08:02:44.263Z,17.33
2023-04-22T08:05:11.716Z,18.00
2023-04-22T08:07:38.568Z,11.18
2023-04-22T08:10:06.166Z,14.43
2023-04-22T08:12:32.821Z,13.70
2023-04-22T08:14:59.488Z,15.52
2023-04-22T08:17:26.873Z,16.50
2023-04-22T08:19:53.568Z,16.85
2023-04-22T08:22:20.275Z,20.38
2023-04-22T08:24:46.946Z,17.80
2023-04-22T08:27:13.626Z,15.27
2023-04-22T08:29:40.745Z,16.65
2023-04-22T08:32:07.915Z,20.33
2023-04-22T08:34:34.694Z,17.20
2023-04-22T08:37:01.400Z,20.70
2023-04-22T08:39:28.233Z,20.95
2023-04-22T08:41:56.429Z,22.80
2023-04-22T08:44:23.169Z,17.95
2023-04-22T08:46:51.289Z,14.75
2023-04-22T08:49:19.267Z,13.68
2023-04-22T08:51:46.212Z,15.18
2023-04-22T08:54:12.945Z,17.35
2023-04-22T08:56:44.393Z,21.75
2023-04-22T08:59:12.499Z,20.05
2023-04-22T09:01:42.794Z,16.75
2023-04-22T09:04:11.480Z,17.38
2023-04-22T09:09:05.387Z,15.40
2023-04-22T09:11:33.169Z,13.30
2023-04-22T09:13:59.872Z,14.52
2023-04-22T09:16:26.656Z,14.18
2023-04-22T09:18:53.379Z,17.02
2023-04-22T09:21:20.144Z,13.80
2023-04-22T09:23:54.368Z,13.32
2023-04-22T09:26:23.531Z,15.68
2023-04-22T09:28:53.583Z,13.45
2023-04-22T09:31:21.613Z,16.45
2023-04-22T09:33:53.746Z,11.73
2023-04-22T09:36:27.371Z,18.30
2023-04-22T09:38:58.668Z,15.40
2023-04-22T09:41:32.842Z,11.05
2023-04-22T09:44:00.868Z,14.80
2023-04-22T09:46:29.240Z,14.95
2023-04-22T09:48:56.933Z,13.70
2023-04-22T09:51:24.162Z,19.60
2023-04-22T09:54:05.307Z,21.10
2023-04-22T09:59:08.792Z,13.85
2023-04-22T10:01:41.244Z,23.60
2023-04-22T10:04:14.851Z,13.23
2023-04-22T10:06:42.439Z,15.05
2023-04-22T10:09:09.880Z,11.25
2023-04-22T10:11:37.637Z,13.60
2023-04-22T10:14:05.490Z,20.00
2023-04-22T10:16:34.053Z,13.63
2023-04-22T10:19:03.495Z,18.75
2023-04-22T10:21:30.561Z,15.68
2023-04-22T10:23:59.407Z,14.25
2023-04-22T10:29:17.811Z,13.13
2023-04-22T10:31:55.527Z,13.80
2023-04-22T10:34:22.225Z,15.35
2023-04-22T10:36:56.837Z,10.38
2023-04-22T10:39:24.717Z,12.55
2023-04-22T10:41:57.019Z,10.27
2023-04-22T10:44:28.044Z,37.75
2023-04-22T10:46:59.609Z,18.67
2023-04-22T10:49:27.232Z,11.18
2023-04-22T10:52:01.201Z,11.85
2023-04-22T10:54:30.624Z,15.65
2023-04-22T10:57:09.012Z,11.00
2023-04-22T10:59:50.203Z,9.38
2023-04-22T11:02:18.083Z,10.65
2023-04-22T11:04:45.054Z,14.65
2023-04-22T11:07:23.008Z,21.95
2023-04-22T11:10:05.442Z,16.15
2023-04-22T11:12:35.114Z,10.45
2023-04-22T11:15:05.711Z,16.10
2023-04-22T11:17:32.822Z,12.35
2023-04-22T11:19:59.994Z,12.23
2023-04-22T11:22:26.989Z,14.05
2023-04-22T11:25:00.727Z,14.50
2023-04-22T11:27:28.053Z,12.52
2023-04-22T11:30:10.818Z,19.83
2023-04-22T11:32:39.657Z,12.73
2023-04-22T11:37:42.085Z,17.67
2023-04-22T11:40:27.811Z,18.13
2023-04-22T11:42:56.540Z,14.50
2023-04-22T11:45:23.784Z,15.90
2023-04-22T11:47:52.368Z,12.90
2023-04-22T11:50:22.228Z,11.73
2023-04-22T11:52:51.974Z,14.07
2023-04-22T11:55:30.265Z,12.02
2023-04-22T11:57:59.907Z,14.27
2023-04-22T12:00:49.599Z,10.32
2023-04-22T12:03:21.636Z,9.93
2023-04-22T12:05:55.871Z,16.00
2023-04-22T12:08:25.111Z,13.57
2023-04-22T12:10:59.491Z,11.95
2023-04-22T12:13:33.274Z,24.45
2023-04-22T12:16:13.490Z,13.23
2023-04-22T12:18:41.396Z,14.18
2023-04-22T12:21:11.395Z,9.90
2023-04-22T12:23:48.545Z,12.27
2023-04-22T12:26:21.345Z,16.60
2023-04-22T12:28:49.863Z,14.50
2023-04-22T12:31:17.495Z,16.67
2023-04-22T12:33:44.944Z,15.27
2023-04-22T12:36:11.981Z,15.05
2023-04-22T12:38:39.131Z,22.13
2023-04-22T12:41:06.560Z,15.50
2023-04-22T12:43:36.683Z,18.65
2023-04-22T12:46:04.243Z,14.32
2023-04-22T12:48:31.673Z,13.90
2023-04-22T12:50:58.727Z,17.08
2023-04-22T12:53:26.862Z,14.43
2023-04-22T12:55:53.660Z,15.00
2023-04-22T12:58:20.413Z,14.82
2023-04-22T13:00:47.142Z,17.58
2023-04-22T13:03:13.948Z,14.10
2023-04-22T13:05:40.775Z,19.00
2023-04-22T13:08:08.323Z,14.52
2023-04-22T13:10:35.791Z,17.52
2023-04-22T13:13:17.979Z,15.63
2023-04-22T13:15:47.038Z,13.82
2023-04-22T13:18:14.708Z,14.88
2023-04-22T13:20:42.467Z,14.27
2023-04-22T13:23:09.827Z,15.70
2023-04-22T13:25:36.684Z,17.02
2023-04-22T13:28:03.451Z,19.67
2023-04-22T13:30:30.188Z,14.20
2023-04-22T13:32:57.008Z,31.50
2023-04-22T13:35:24.346Z,22.00
2023-04-22T13:37:51.241Z,15.13
2023-04-22T13:40:17.907Z,16.58
2023-04-22T13:42:44.596Z,12.57
2023-04-22T13:45:11.424Z,15.07
2023-04-22T13:47:38.113Z,16.42
2023-04-22T13:50:06.404Z,15.23
2023-04-22T13:52:34.005Z,18.15
2023-04-22T13:55:01.074Z,14.35
2023-04-22T13:57:27.801Z,19.25
2023-04-22T13:59:54.443Z,10.95
2023-04-22T14:02:21.356Z,13.13
2023-04-22T14:04:48.243Z,13.68
2023-04-22T14:07:14.989Z,12.48
2023-04-22T14:09:41.752Z,16.70
2023-04-22T14:12:09.090Z,18.50
2023-04-22T14:14:35.956Z,13.43
2023-04-22T14:17:03.042Z,13.70
2023-04-22T14:19:32.474Z,13.38
2023-04-22T14:21:59.180Z,13.50
2023-04-22T14:24:28.463Z,13.05
2023-04-22T14:26:55.753Z,14.80
2023-04-22T14:29:22.446Z,12.73
2023-04-22T14:31:49.961Z,13.93
2023-04-22T14:34:17.258Z,15.98
2023-04-22T14:36:44.216Z,12.32
2023-04-22T14:39:11.039Z,14.43
2023-04-22T14:41:37.724Z,14.95
2023-04-22T14:44:04.381Z,15.90
2023-04-22T14:46:31.129Z,12.50
2023-04-22T14:48:57.789Z,16.33
2023-04-22T14:51:24.572Z,15.50
2023-04-22T14:53:51.630Z,11.82
2023-04-22T14:56:18.373Z,11.85
2023-04-22T14:58:45.006Z,14.52
2023-04-22T15:01:11.892Z,13.25
2023-04-22T15:03:38.873Z,10.52
2023-04-22T15:06:05.890Z,10.45
2023-04-22T15:08:32.600Z,15.95
2023-04-22T15:10:59.992Z,14.90
2023-04-22T15:13:27.733Z,15.10
2023-04-22T15:15:54.442Z,12.75
2023-04-22T15:18:21.237Z,13.75
2023-04-22T15:20:47.906Z,10.35
2023-04-22T15:23:15.433Z,10.30
2023-04-22T15:25:42.363Z,14.65
2023-04-22T15:28:09.053Z,11.00
2023-04-22T15:30:35.928Z,12.32
2023-04-22T15:33:05.006Z,15.90
2023-04-22T15:37:58.896Z,16.23
2023-04-22T15:40:25.679Z,12.75
2023-04-22T15:42:52.344Z,16.25
2023-04-22T15:45:19.019Z,14.63
2023-04-22T15:47:46.757Z,18.27
2023-04-22T15:50:13.411Z,18.90
2023-04-22T15:52:40.064Z,15.23
2023-04-22T15:55:07.943Z,17.48
2023-04-22T15:57:35.363Z,13.73
2023-04-22T16:00:11.194Z,15.73
2023-04-22T16:02:39.929Z,12.38
2023-04-22T16:05:07.100Z,12.00
2023-04-22T16:07:33.741Z,14.43
2023-04-22T16:10:00.485Z,18.00
2023-04-22T16:12:27.179Z,18.30
2023-04-22T16:14:54.029Z,17.13
2023-04-22T16:17:21.020Z,15.48
2023-04-22T16:19:47.771Z,21.05
2023-04-22T16:22:14.588Z,23.63
2023-04-22T16:24:43.959Z,14.40
2023-04-22T16:27:16.388Z,13.27
2023-04-22T16:29:43.842Z,16.15
2023-04-22T16:32:11.124Z,16.35
2023-04-22T16:34:38.356Z,12.25
2023-04-22T16:37:05.540Z,12.98
2023-04-22T16:39:32.476Z,12.10
2023-04-22T16:41:59.233Z,12.93
2023-04-22T16:44:26.068Z,16.52
2023-04-22T16:46:52.745Z,14.52
2023-04-22T16:49:19.692Z,15.65
2023-04-22T16:51:46.638Z,21.45
2023-04-22T16:54:13.360Z,17.90
2023-04-22T16:56:40.425Z,26.00
2023-04-22T16:59:07.276Z,11.82
2023-04-22T17:01:34.215Z,21.70
2023-04-22T17:04:01.592Z,14.35
2023-04-22T17:06:28.403Z,15.50
2023-04-22T17:08:55.151Z,18.70
2023-04-22T17:11:22.110Z,12.30
2023-04-22T17:13:48.856Z,10.57
2023-04-22T17:16:15.820Z,12.00
2023-04-22T17:18:44.175Z,13.15
2023-04-22T17:21:10.956Z,18.52
2023-04-22T17:23:38.292Z,19.02
2023-04-22T17:26:04.952Z,16.15
2023-04-22T17:28:31.898Z,17.13
2023-04-22T17:30:58.645Z,24.48
2023-04-22T17:33:26.640Z,24.58
2023-04-22T17:35:53.313Z,19.30
2023-04-22T17:38:19.996Z,13.38
2023-04-22T17:40:46.678Z,22.48
2023-04-22T17:43:13.395Z,29.27
2023-04-22T17:45:40.085Z,17.10
2023-04-22T17:48:06.857Z,18.60
2023-04-22T17:50:33.710Z,19.75
2023-04-22T17:53:00.621Z,20.17
2023-04-22T17:55:27.370Z,22.83
2023-04-22T17:57:54.028Z,21.27
2023-04-22T18:00:20.982Z,18.20
2023-04-22T18:02:48.067Z,13.65
2023-04-22T18:05:14.954Z,27.38
2023-04-22T18:07:41.686Z,24.55
2023-04-22T18:10:09.334Z,33.47
2023-04-22T18:12:36.086Z,42.88
2023-04-22T18:15:03.023Z,30.88
2023-04-22T18:17:29.780Z,32.03
2023-04-22T18:20:09.873Z,39.20
2023-04-22T18:22:41.989Z,24.77
2023-04-22T18:25:08.675Z,28.98
2023-04-22T18:27:35.398Z,37.55
2023-04-22T18:30:02.100Z,31.38
2023-04-22T18:32:29.052Z,25.05
2023-04-22T18:34:55.825Z,25.83
2023-04-22T18:37:22.598Z,28.23
2023-04-22T18:39:49.297Z,26.25
2023-04-22T18:42:15.998Z,32.97
2023-04-22T18:44:43.030Z,46.63
2023-04-22T18:47:10.078Z,47.00
2023-04-22T18:49:36.748Z,47.20
2023-04-22T18:52:03.444Z,51.35
2023-04-22T18:54:30.745Z,35.92
2023-04-22T18:56:58.330Z,53.75
2023-04-22T18:59:25.087Z,47.88
2023-04-22T19:01:51.919Z,33.55
2023-04-22T19:04:18.859Z,38.88
2023-04-22T19:06:45.836Z,36.58
2023-04-22T19:09:12.580Z,42.92
2023-04-22T19:11:39.354Z,36.97
2023-04-22T19:14:06.186Z,40.97
2023-04-22T19:16:33.142Z,41.20
2023-04-22T19:18:59.788Z,36.13
2023-04-22T19:21:27.129Z,35.22
2023-04-22T19:23:53.919Z,35.13
2023-04-22T19:26:22.018Z,33.65
2023-04-22T19:28:49.103Z,38.83
2023-04-22T19:31:19.550Z,32.80
2023-04-22T19:33:46.311Z,33.78
2023-04-22T19:36:13.187Z,48.28
2023-04-22T19:38:39.965Z,46.88
2023-04-22T19:41:08.941Z,48.72
2023-04-22T19:43:37.415Z,33.90
2023-04-22T19:46:04.898Z,38.60
2023-04-22T19:48:32.063Z,36.33
2023-04-22T19:50:59.541Z,30.15
2023-04-22T19:53:28.831Z,39.22
2023-04-22T19:58:21.989Z,29.70
2023-04-22T20:00:49.459Z,27.52
2023-04-22T20:03:16.666Z,26.73
2023-04-22T20:05:44.279Z,23.08
2023-04-22T20:08:12.162Z,21.10
2023-04-22T20:10:38.929Z,33.28
2023-04-22T20:13:06.246Z,31.52
2023-04-22T20:15:33.257Z,32.00
2023-04-22T20:18:00.116Z,22.40
2023-04-22T20:20:27.646Z,41.15
2023-04-22T20:22:55.048Z,44.38
2023-04-22T20:25:23.211Z,32.55
2023-04-22T20:27:49.984Z,30.95
2023-04-22T20:30:16.996Z,29.33
2023-04-22T20:32:43.830Z,30.65
2023-04-22T20:35:15.021Z,32.88
2023-04-22T20:37:42.110Z,31.60
2023-04-22T20:40:09.207Z,27.90
2023-04-22T20:42:37.032Z,26.23
2023-04-22T20:45:07.414Z,28.58
2023-04-22T20:47:35.333Z,28.95
2023-04-22T20:50:02.034Z,26.85
2023-04-22T20:52:28.700Z,26.52
2023-04-22T20:54:56.591Z,26.92
2023-04-22T20:57:23.832Z,24.27
2023-04-22T20:59:50.698Z,23.98
2023-04-22T21:02:18.463Z,26.52
2023-04-22T21:04:45.527Z,26.25
2023-04-22T21:07:12.499Z,31.23
2023-04-22T21:09:40.546Z,26.15
2023-04-22T21:12:07.782Z,28.30
2023-04-22T21:14:34.686Z,33.05
2023-04-22T21:17:04.743Z,31.05
2023-04-22T21:19:34.926Z,38.72
2023-04-22T21:22:05.262Z,30.23
2023-04-22T21:24:35.686Z,33.28
2023-04-22T21:27:03.064Z,39.05
2023-04-22T21:29:30.195Z,31.92
2023-04-22T21:32:07.837Z,37.10
2023-04-22T21:34:35.917Z,34.92
2023-04-22T21:37:02.783Z,32.65
2023-04-22T21:39:29.835Z,34.35
2023-04-22T21:41:56.786Z,38.00
2023-04-22T21:44:23.455Z,35.13
2023-04-22T21:46:50.376Z,36.78
2023-04-22T21:49:17.368Z,30.33
2023-04-22T21:51:44.080Z,31.75
2023-04-22T21:54:11.128Z,26.75
2023-04-22T21:56:37.892Z,33.90
2023-04-22T21:59:04.527Z,29.73
2023-04-22T22:01:31.253Z,27.77
2023-04-22T22:03:58.101Z,27.38
2023-04-22T22:06:25.571Z,31.42
2023-04-22T22:08:53.374Z,28.15
2023-04-22T22:11:30.398Z,29.20
2023-04-22T22:13:57.761Z,32.08
2023-04-22T22:16:24.723Z,26.70
2023-04-22T22:18:52.019Z,25.30
2023-04-22T22:21:18.784Z,30.55
2023-04-22T22:23:45.428Z,31.05
2023-04-22T22:26:12.178Z,29.90
2023-04-22T22:28:39.480Z,25.42
2023-04-22T22:31:06.949Z,29.77
2023-04-22T22:33:33.736Z,27.02
2023-04-22T22:36:00.465Z,40.85
2023-04-22T22:38:27.167Z,27.20
2023-04-22T22:40:53.819Z,29.67
2023-04-22T22:43:20.781Z,25.13
2023-04-22T22:45:47.509Z,30.08
2023-04-22T22:48:14.257Z,26.98
2023-04-22T22:50:41.086Z,31.83
2023-04-22T22:53:07.810Z,35.17
2023-04-22T22:55:34.790Z,28.67
2023-04-22T22:58:01.495Z,32.55
2023-04-22T23:00:28.212Z,28.48
2023-04-22T23:02:55.721Z,31.90
2023-04-22T23:05:22.521Z,23.63
2023-04-22T23:07:49.198Z,25.63
2023-04-22T23:10:15.947Z,26.52
2023-04-22T23:12:42.635Z,22.73
2023-04-22T23:15:09.761Z,24.30
2023-04-22T23:17:36.933Z,34.05
2023-04-22T23:20:04.327Z,22.08
2023-04-22T23:22:32.184Z,32.45
2023-04-22T23:24:59.362Z,38.67
2023-04-22T23:27:26.349Z,27.88
2023-04-22T23:29:53.462Z,30.90
2023-04-22T23:32:20.862Z,27.30
2023-04-22T23:34:49.575Z,30.55
2023-04-22T23:37:16.500Z,28.85
2023-04-22T23:39:43.355Z,23.95
2023-04-22T23:42:10.550Z,27.38
2023-04-22T23:44:37.307Z,29.77
2023-04-22T23:47:05.496Z,23.38
2023-04-22T23:49:32.263Z,30.98
2023-04-22T23:51:59.590Z,22.70
2023-04-22T23:54:26.965Z,36.00
2023-04-22T23:56:54.063Z,34.78
2023-04-22T23:59:20.961Z,28.98
